createdAt,value
2023-02-19T10:55:31.832Z,6.80
2023-02-19T11:13:40.095Z,6.22
2023-02-19T11:18:45.418Z,5.97
2023-02-19T11:23:50.757Z,6.38
2023-02-19T11:29:00.938Z,6.03
2023-02-19T11:34:26.286Z,6.13
2023-02-19T11:39:32.790Z,5.75
2023-02-19T11:44:50.642Z,6.85
2023-02-19T11:50:02.953Z,5.97
2023-02-19T11:55:16.492Z,6.40
2023-02-19T12:00:29.402Z,7.15
2023-02-19T12:05:39.472Z,6.22
2023-02-19T12:10:58.828Z,6.82
2023-02-19T12:16:23.033Z,6.10
2023-02-19T12:21:42.519Z,6.50
2023-02-19T12:27:05.170Z,9.23
2023-02-19T12:32:30.272Z,7.13
2023-02-19T12:37:43.301Z,7.60
2023-02-19T12:42:58.745Z,6.30
2023-02-19T12:48:11.525Z,6.30
2023-02-19T12:53:26.802Z,5.57
2023-02-19T12:58:34.749Z,4.93
2023-02-19T13:03:44.279Z,5.18
2023-02-19T13:09:05.443Z,5.15
2023-02-19T13:14:21.637Z,5.88
2023-02-19T13:19:26.240Z,6.93
2023-02-19T13:24:33.025Z,8.50
2023-02-19T13:29:55.449Z,6.50
2023-02-19T13:35:18.099Z,6.25
2023-02-19T13:40:32.257Z,5.03
2023-02-19T13:45:40.084Z,5.20
2023-02-19T13:50:45.063Z,5.45
2023-02-19T13:55:54.056Z,4.90
2023-02-19T14:00:58.106Z,5.07
2023-02-19T14:06:06.156Z,5.00
2023-02-19T14:11:09.667Z,5.03
2023-02-19T14:16:31.096Z,4.63
2023-02-19T14:21:40.573Z,4.65
2023-02-19T14:26:44.507Z,5.47
2023-02-19T14:31:48.556Z,4.57
2023-02-19T14:36:57.438Z,4.07
2023-02-19T14:42:06.360Z,4.32
2023-02-19T14:47:14.923Z,4.05
2023-02-19T14:52:25.235Z,4.28
2023-02-19T14:57:31.257Z,4.53
2023-02-19T15:02:35.501Z,4.28
2023-02-19T15:07:43.092Z,3.97
2023-02-19T15:12:49.193Z,3.53
2023-02-19T15:17:54.111Z,3.83
2023-02-19T15:23:03.061Z,4.10
2023-02-19T15:28:24.305Z,3.92
2023-02-19T15:33:29.568Z,3.42
2023-02-19T15:38:36.713Z,3.75
2023-02-19T15:43:45.460Z,3.65
2023-02-19T15:48:54.747Z,3.60
2023-02-19T15:54:05.376Z,3.55
2023-02-19T15:59:20.100Z,2.95
2023-02-19T16:18:49.299Z,3.28
2023-02-19T16:23:57.126Z,3.38
2023-02-19T16:29:00.446Z,3.33
2023-02-19T16:34:19.938Z,2.83
2023-02-19T16:39:27.026Z,2.60
2023-02-19T16:44:36.802Z,3.13
2023-02-19T16:49:42.632Z,3.15
2023-02-19T16:54:45.803Z,3.78
2023-02-19T16:59:49.433Z,2.90
2023-02-19T17:04:55.941Z,3.50
2023-02-19T17:09:59.144Z,3.03
2023-02-19T17:15:02.301Z,3.50
2023-02-19T17:20:22.940Z,3.72
2023-02-19T17:25:26.136Z,3.58
2023-02-19T17:30:30.971Z,3.13
2023-02-19T17:35:35.547Z,3.40
2023-02-19T17:40:39.611Z,4.10
2023-02-19T17:45:42.997Z,3.87
2023-02-19T17:50:49.317Z,4.03
2023-02-19T17:55:52.451Z,4.15
2023-02-19T18:00:55.720Z,3.70
2023-02-19T18:06:00.271Z,3.88
2023-02-19T18:11:03.425Z,3.85
2023-02-19T18:16:07.331Z,5.03
2023-02-19T18:21:13.762Z,4.20
2023-02-19T18:26:21.772Z,4.72
2023-02-19T18:31:25.006Z,13.00
2023-02-19T18:36:29.693Z,5.65
2023-02-19T18:41:32.820Z,4.78
2023-02-19T18:46:35.940Z,5.05
2023-02-19T18:51:40.488Z,4.38
2023-02-19T18:56:44.517Z,4.13
2023-02-19T19:01:47.869Z,4.10
2023-02-19T19:06:52.490Z,4.28
2023-02-19T19:11:55.780Z,4.85
2023-02-19T19:16:59.100Z,6.38
2023-02-19T19:22:03.836Z,6.90
2023-02-19T19:32:10.867Z,7.80
2023-02-19T19:37:15.585Z,7.33
2023-02-19T19:42:18.790Z,6.40
2023-02-19T19:47:22.205Z,7.32
2023-02-19T19:52:26.837Z,6.93
2023-02-19T19:57:30.081Z,5.97
2023-02-19T20:02:33.310Z,6.18
2023-02-19T20:07:38.036Z,6.43
2023-02-19T20:12:41.716Z,6.50
2023-02-19T20:17:44.988Z,6.15
2023-02-19T20:22:49.679Z,7.97
2023-02-19T20:27:54.020Z,7.15
2023-02-19T20:32:57.293Z,6.90
2023-02-19T20:38:01.901Z,6.97
2023-02-19T20:43:05.513Z,8.07
2023-02-19T20:48:08.753Z,7.90
2023-02-19T20:53:13.432Z,7.40
2023-02-19T20:58:17.362Z,7.75
2023-02-19T21:03:20.752Z,8.43
2023-02-19T21:08:25.339Z,7.68
2023-02-19T21:13:30.197Z,7.90
2023-02-19T21:23:38.430Z,8.27
2023-02-19T21:28:41.793Z,7.85
2023-02-19T21:33:45.003Z,7.68
2023-02-19T21:38:50.144Z,8.10
2023-02-19T21:43:54.862Z,8.25
2023-02-19T21:48:58.764Z,8.43
2023-02-19T21:54:03.603Z,8.57
2023-02-19T21:59:06.833Z,8.25
2023-02-19T22:04:11.610Z,8.15
2023-02-19T22:09:16.370Z,7.85
2023-02-19T22:14:19.631Z,8.30
2023-02-19T22:19:22.930Z,8.52
2023-02-19T22:24:28.670Z,7.65
2023-02-19T22:29:32.250Z,7.25
2023-02-19T22:34:39.922Z,8.18
2023-02-19T22:39:44.521Z,7.55
2023-02-19T22:44:47.776Z,8.30
2023-02-19T22:49:51.534Z,7.35
2023-02-19T22:54:56.165Z,8.38
2023-02-19T22:59:59.617Z,8.52
2023-02-19T23:05:02.879Z,8.50
2023-02-19T23:10:09.358Z,7.85
2023-02-19T23:15:13.022Z,8.32
2023-02-19T23:20:16.350Z,8.25
2023-02-19T23:25:21.057Z,8.43
2023-02-19T23:30:24.796Z,8.70
2023-02-19T23:35:28.054Z,9.02
2023-02-19T23:40:32.646Z,8.38
2023-02-19T23:45:35.787Z,8.88
2023-02-19T23:50:39.058Z,8.52
2023-02-19T23:55:43.888Z,8.68
